Time;durP1;ratioP1;P1;durP2;ratioP2;P2;SDS_P1;SDS_P2;PMS_P1;PMS_P2;Temp;Humidity;BMP_temperature;BMP_pressure;BME280_temperature;BME280_humidity;BME280_pressure;Samples;Min_cycle;Max_cycle;Signal;HPM_P1;HPM_P2
2023/01/19 00:00:16;;;;;;;4.95;0.60;;;;;;;;;;5017075;28;20080;-82
2023/01/19 00:02:46;;;;;;;6.18;0.88;;;;;;;;;;5017645;28;20057;-82
2023/01/19 00:05:11;;;;;;;6.55;0.68;;;;;;;;;;5017782;28;20049;-82
2023/01/19 00:07:37;;;;;;;5.80;0.43;;;;;;;;;;5017662;28;20030;-82
2023/01/19 00:10:04;;;;;;;8.95;0.60;;;;;;;;;;5017000;28;20467;-82
2023/01/19 00:12:30;;;;;;;8.43;1.77;;;;;;;;;;5017074;28;20022;-82
2023/01/19 00:14:56;;;;;;;4.03;0.75;;;;;;;;;;5016506;28;20165;-81
2023/01/19 00:17:22;;;;;;;8.73;1.08;;;;;;;;;;5027280;28;20115;-81
2023/01/19 00:19:50;;;;;;;4.78;1.02;;;;;;;;;;5038950;28;20032;-82
2023/01/19 00:22:25;;;;;;;2.05;0.40;;;;;;;;;;5038128;28;20482;-81
2023/01/19 00:24:51;;;;;;;6.75;0.60;;;;;;;;;;5039358;28;20034;-81
2023/01/19 00:27:17;;;;;;;4.18;0.50;;;;;;;;;;5038837;28;20025;-81
2023/01/19 00:29:43;;;;;;;1.98;0.40;;;;;;;;;;5040068;28;20200;-81
2023/01/19 00:32:09;;;;;;;1.30;0.20;;;;;;;;;;5039407;28;20157;-81
2023/01/19 00:34:41;;;;;;;2.28;0.45;;;;;;;;;;5039837;28;20522;-81
2023/01/19 00:37:07;;;;;;;2.47;0.50;;;;;;;;;;5022917;28;20032;-81
2023/01/19 00:39:33;;;;;;;4.13;0.63;;;;;;;;;;5022165;28;20030;-82
2023/01/19 00:44:44;;;;;;;3.42;0.50;;;;;;;;;;5040797;28;20097;-82
2023/01/19 00:47:10;;;;;;;7.38;0.73;;;;;;;;;;5040193;28;20029;-82
2023/01/19 00:49:36;;;;;;;2.45;0.40;;;;;;;;;;5039697;28;20111;-82
2023/01/19 00:52:02;;;;;;;5.40;0.50;;;;;;;;;;5039562;28;20029;-81
2023/01/19 00:54:28;;;;;;;4.28;0.55;;;;;;;;;;5039390;28;20061;-82
2023/01/19 00:56:53;;;;;;;3.80;0.45;;;;;;;;;;5039775;28;20022;-82
2023/01/19 00:59:19;;;;;;;4.70;0.50;;;;;;;;;;5040044;28;20025;-82
2023/01/19 01:01:45;;;;;;;2.40;0.43;;;;;;;;;;5040199;28;20048;-82
2023/01/19 01:04:13;;;;;;;6.03;0.77;;;;;;;;;;5039410;28;20546;-82
2023/01/19 01:06:39;;;;;;;2.97;0.98;;;;;;;;;;5040398;28;20029;-82
2023/01/19 01:09:10;;;;;;;2.67;0.60;;;;;;;;;;5039342;28;20052;-82
2023/01/19 01:11:38;;;;;;;3.70;0.50;;;;;;;;;;5039443;28;20033;-82
2023/01/19 01:14:04;;;;;;;2.17;0.20;;;;;;;;;;5039383;28;20024;-82
2023/01/19 01:16:30;;;;;;;1.85;0.40;;;;;;;;;;5021336;28;20045;-82
2023/01/19 01:18:56;;;;;;;1.98;0.63;;;;;;;;;;5038796;28;20029;-81
2023/01/19 01:21:22;;;;;;;3.42;0.55;;;;;;;;;;5038806;28;20048;-82
2023/01/19 01:23:48;;;;;;;4.13;0.52;;;;;;;;;;5039169;28;20085;-82
2023/01/19 01:26:14;;;;;;;3.00;0.70;;;;;;;;;;5038018;28;20029;-82
2023/01/19 01:28:40;;;;;;;3.33;0.65;;;;;;;;;;5037545;28;20030;-81
2023/01/19 01:31:06;;;;;;;3.88;0.52;;;;;;;;;;5019536;28;20039;-81
2023/01/19 01:33:32;;;;;;;3.03;0.40;;;;;;;;;;5037468;28;20025;-81
2023/01/19 01:35:58;;;;;;;3.42;0.40;;;;;;;;;;5037913;28;20390;-81
2023/01/19 01:38:24;;;;;;;3.15;0.57;;;;;;;;;;5037362;28;20080;-82
2023/01/19 01:40:50;;;;;;;4.53;0.50;;;;;;;;;;5036067;28;20025;-82
2023/01/19 01:43:17;;;;;;;1.42;0.20;;;;;;;;;;5035608;28;20065;-82
2023/01/19 01:45:44;;;;;;;3.85;0.40;;;;;;;;;;5035275;28;20052;-81
2023/01/19 01:51:29;;;;;;;0.38;0.10;;;;;;;;;;5034490;28;20029;-81
2023/01/19 01:53:58;;;;;;;2.90;0.30;;;;;;;;;;5035049;28;20044;-81
2023/01/19 01:56:27;;;;;;;0.55;0.20;;;;;;;;;;5035274;28;20033;-81
2023/01/19 01:58:53;;;;;;;3.10;0.20;;;;;;;;;;5035351;28;20029;-82
2023/01/19 02:04:04;;;;;;;2.90;0.30;;;;;;;;;;5036195;28;20552;-81
2023/01/19 02:06:30;;;;;;;1.65;0.30;;;;;;;;;;5034194;28;20032;-81
2023/01/19 02:14:36;;;;;;;4.82;0.30;;;;;;;;;;5033957;28;20924;-81
2023/01/19 02:17:02;;;;;;;2.10;0.20;;;;;;;;;;5016521;28;20033;-81
2023/01/19 02:19:32;;;;;;;4.57;0.50;;;;;;;;;;5034243;28;20022;-81
2023/01/19 02:21:58;;;;;;;3.72;0.40;;;;;;;;;;5034194;28;20026;-82
2023/01/19 02:24:24;;;;;;;6.03;0.70;;;;;;;;;;5033936;28;20025;-81
2023/01/19 02:27:17;;;;;;;4.63;0.85;;;;;;;;;;5033961;28;20463;-81
2023/01/19 02:29:56;;;;;;;5.22;0.73;;;;;;;;;;5034006;28;20029;-81
2023/01/19 02:32:22;;;;;;;1.50;0.17;;;;;;;;;;5034137;28;20033;-81
2023/01/19 02:34:48;;;;;;;2.97;0.45;;;;;;;;;;5034188;28;20030;-82
2023/01/19 02:37:16;;;;;;;2.13;0.98;;;;;;;;;;5034914;28;20036;-81
2023/01/19 02:39:44;;;;;;;4.28;0.50;;;;;;;;;;5036112;28;20026;-81
2023/01/19 02:42:25;;;;;;;6.50;0.77;;;;;;;;;;5038359;28;20037;-81
2023/01/19 02:44:52;;;;;;;3.78;0.35;;;;;;;;;;5020309;28;20120;-81
2023/01/19 02:47:18;;;;;;;3.25;0.70;;;;;;;;;;5038272;28;20032;-82
2023/01/19 02:49:44;;;;;;;1.83;0.30;;;;;;;;;;5038860;28;20383;-82
2023/01/19 02:52:15;;;;;;;4.40;0.60;;;;;;;;;;5020885;28;20394;-81
2023/01/19 02:54:41;;;;;;;;;;;;;;;;;;5039379;28;20088;-82
2023/01/19 02:57:13;;;;;;;9.13;0.68;;;;;;;;;;5038631;28;19905;-82
2023/01/19 02:59:45;;;;;;;4.95;0.30;;;;;;;;;;5039090;28;20030;-82
2023/01/19 03:02:27;;;;;;;7.28;0.82;;;;;;;;;;5038374;28;20113;-82
2023/01/19 03:05:12;;;;;;;6.65;0.82;;;;;;;;;;5039198;28;20071;-82
2023/01/19 03:08:04;;;;;;;10.32;1.20;;;;;;;;;;5040060;28;20479;-82
2023/01/19 03:14:10;;;;;;;12.02;1.85;;;;;;;;;;5040661;28;20032;-82
2023/01/19 03:16:43;;;;;;;5.97;1.13;;;;;;;;;;5039781;28;20112;-82
2023/01/19 03:19:12;;;;;;;4.65;0.68;;;;;;;;;;5039804;28;20037;-82
2023/01/19 03:21:39;;;;;;;8.07;0.73;;;;;;;;;;5039009;28;20029;-82
2023/01/19 03:24:06;;;;;;;8.32;1.25;;;;;;;;;;5039224;28;20033;-82
2023/01/19 03:26:35;;;;;;;4.78;0.80;;;;;;;;;;5039005;28;20021;-81
2023/01/19 03:29:02;;;;;;;9.77;1.15;;;;;;;;;;5039687;28;20105;-81
2023/01/19 03:31:29;;;;;;;3.20;0.57;;;;;;;;;;5039279;28;20033;-81
2023/01/19 03:33:58;;;;;;;5.35;0.90;;;;;;;;;;5039461;28;20040;-81
2023/01/19 03:36:33;;;;;;;8.98;0.88;;;;;;;;;;5040116;28;20076;-82
2023/01/19 03:39:00;;;;;;;4.22;0.80;;;;;;;;;;5039658;28;20033;-82
2023/01/19 03:41:27;;;;;;;5.00;1.23;;;;;;;;;;5021138;28;20044;-82
2023/01/19 03:43:54;;;;;;;6.32;1.15;;;;;;;;;;5039028;28;20033;-81
2023/01/19 03:46:21;;;;;;;1.63;0.45;;;;;;;;;;5038797;28;20025;-81
2023/01/19 03:48:48;;;;;;;2.63;0.77;;;;;;;;;;5047838;28;20061;-81
2023/01/19 03:51:15;;;;;;;3.72;0.80;;;;;;;;;;5020985;28;20096;-81
2023/01/19 03:53:41;;;;;;;2.08;0.73;;;;;;;;;;5039200;28;20490;-81
2023/01/19 03:56:16;;;;;;;2.65;0.60;;;;;;;;;;5039892;28;20025;-81
2023/01/19 03:58:42;;;;;;;4.05;0.68;;;;;;;;;;5039078;28;20097;-82
2023/01/19 04:01:08;;;;;;;0.52;0.17;;;;;;;;;;5039343;28;20536;-82
2023/01/19 04:03:34;;;;;;;0.90;0.20;;;;;;;;;;5039203;28;20037;-82
2023/01/19 04:06:00;;;;;;;0.88;0.20;;;;;;;;;;5020384;28;20026;-81
2023/01/19 04:08:26;;;;;;;0.00;0.00;;;;;;;;;;5039115;28;20053;-81
2023/01/19 04:10:53;;;;;;;0.10;0.10;;;;;;;;;;5040156;28;20033;-81
2023/01/19 04:13:18;;;;;;;2.03;0.30;;;;;;;;;;5039117;28;20040;-82
2023/01/19 04:15:44;;;;;;;1.67;0.30;;;;;;;;;;5038986;28;20057;-81
2023/01/19 04:18:10;;;;;;;2.00;0.55;;;;;;;;;;5038434;28;20029;-81
2023/01/19 04:20:36;;;;;;;2.50;0.32;;;;;;;;;;5039405;28;20029;-81
2023/01/19 04:23:02;;;;;;;1.50;0.30;;;;;;;;;;5020308;28;20034;-81
2023/01/19 04:25:28;;;;;;;3.78;0.40;;;;;;;;;;5021168;28;20022;-81
2023/01/19 04:27:57;;;;;;;2.33;0.30;;;;;;;;;;5020732;28;20479;-81
2023/01/19 04:30:23;;;;;;;3.30;0.40;;;;;;;;;;5037946;28;20032;-81
2023/01/19 04:32:49;;;;;;;2.47;0.32;;;;;;;;;;5037475;28;20029;-81
2023/01/19 04:35:15;;;;;;;2.95;0.28;;;;;;;;;;5038131;28;20104;-81
2023/01/19 04:37:42;;;;;;;3.90;0.57;;;;;;;;;;5020722;28;20022;-81
2023/01/19 04:40:10;;;;;;;5.07;0.57;;;;;;;;;;5043005;28;20032;-81
2023/01/19 04:42:36;;;;;;;2.80;0.47;;;;;;;;;;5024441;28;20037;-81
2023/01/19 04:45:02;;;;;;;3.92;0.93;;;;;;;;;;5042659;28;20033;-81
2023/01/19 04:47:28;;;;;;;4.90;1.13;;;;;;;;;;5042035;28;20069;-81
2023/01/19 04:49:54;;;;;;;2.75;0.52;;;;;;;;;;5041359;28;20390;-81
2023/01/19 04:52:20;;;;;;;5.72;1.10;;;;;;;;;;5023963;28;20036;-81
2023/01/19 04:54:46;;;;;;;7.65;1.58;;;;;;;;;;5039859;28;20104;-81
2023/01/19 04:57:12;;;;;;;5.78;1.10;;;;;;;;;;5021458;28;20387;-81
2023/01/19 04:59:39;;;;;;;6.85;1.23;;;;;;;;;;5020976;28;20021;-82
2023/01/19 05:02:04;;;;;;;10.43;1.52;;;;;;;;;;5020785;28;20033;-82
2023/01/19 05:04:30;;;;;;;8.25;1.08;;;;;;;;;;5021787;28;20490;-82
2023/01/19 05:06:57;;;;;;;7.60;0.85;;;;;;;;;;5039594;28;20036;-81
2023/01/19 05:09:23;;;;;;;6.60;1.13;;;;;;;;;;5022042;28;20368;-81
2023/01/19 05:11:49;;;;;;;10.93;1.45;;;;;;;;;;5021726;28;20041;-81
2023/01/19 05:14:15;;;;;;;12.77;2.42;;;;;;;;;;5021146;28;20116;-81
2023/01/19 05:16:41;;;;;;;11.52;2.78;;;;;;;;;;5020189;28;20048;-81
2023/01/19 05:19:07;;;;;;;10.13;1.35;;;;;;;;;;5038484;28;20064;-81
2023/01/19 05:21:35;;;;;;;10.52;1.08;;;;;;;;;;5020709;28;20041;-81
2023/01/19 05:24:14;;;;;;;8.85;1.65;;;;;;;;;;4999806;28;20388;-80
2023/01/19 05:26:40;;;;;;;2.88;0.40;;;;;;;;;;4996969;28;20034;-81
2023/01/19 05:29:07;;;;;;;3.53;0.50;;;;;;;;;;5005812;28;20074;-81
2023/01/19 05:31:33;;;;;;;6.95;1.13;;;;;;;;;;5005475;28;20026;-81
2023/01/19 05:33:59;;;;;;;5.10;0.88;;;;;;;;;;4992563;28;20018;-81
2023/01/19 05:36:25;;;;;;;4.85;0.90;;;;;;;;;;4992316;28;20375;-81
2023/01/19 05:38:51;;;;;;;4.03;0.55;;;;;;;;;;5007014;28;20022;-81
2023/01/19 05:41:17;;;;;;;3.75;0.80;;;;;;;;;;4985170;28;20041;-81
2023/01/19 05:43:43;;;;;;;3.85;0.63;;;;;;;;;;4984396;28;20089;-81
2023/01/19 05:46:09;;;;;;;5.07;0.85;;;;;;;;;;4986491;28;20086;-81
2023/01/19 05:48:35;;;;;;;10.20;0.98;;;;;;;;;;5000688;28;20021;-81
2023/01/19 05:51:01;;;;;;;5.13;0.75;;;;;;;;;;4999315;28;20049;-81
2023/01/19 05:53:27;;;;;;;10.07;1.10;;;;;;;;;;5000126;28;20022;-81
2023/01/19 05:55:58;;;;;;;9.27;1.00;;;;;;;;;;5018479;28;20056;-81
2023/01/19 05:58:24;;;;;;;4.80;0.80;;;;;;;;;;5018703;28;20026;-81
2023/01/19 06:00:50;;;;;;;9.57;1.20;;;;;;;;;;5001484;28;20121;-81
2023/01/19 06:03:29;;;;;;;13.07;1.55;;;;;;;;;;5001342;28;20045;-81
2023/01/19 06:05:56;;;;;;;9.27;1.08;;;;;;;;;;5019568;28;20022;-81
2023/01/19 06:08:22;;;;;;;11.38;1.40;;;;;;;;;;5000883;28;20026;-81
2023/01/19 06:10:48;;;;;;;6.78;0.90;;;;;;;;;;5000507;28;20037;-81
2023/01/19 06:13:14;;;;;;;10.95;1.10;;;;;;;;;;5001236;28;20026;-81
2023/01/19 06:15:42;;;;;;;9.23;1.05;;;;;;;;;;5021672;28;20046;-81
2023/01/19 06:18:08;;;;;;;5.88;1.58;;;;;;;;;;5003156;28;20037;-81
2023/01/19 06:20:35;;;;;;;11.75;1.25;;;;;;;;;;5003341;28;20027;-81
2023/01/19 06:23:01;;;;;;;11.95;1.45;;;;;;;;;;5021646;28;20447;-81
2023/01/19 06:25:27;;;;;;;11.95;1.40;;;;;;;;;;5021255;28;20153;-81
2023/01/19 06:27:53;;;;;;;11.50;1.00;;;;;;;;;;5021049;28;20021;-81
2023/01/19 06:30:19;;;;;;;8.57;1.02;;;;;;;;;;5020356;28;20455;-81
2023/01/19 06:32:46;;;;;;;5.60;0.60;;;;;;;;;;5003351;28;20449;-81
2023/01/19 06:35:12;;;;;;;5.20;0.93;;;;;;;;;;5021633;28;20018;-81
2023/01/19 06:37:38;;;;;;;7.43;0.98;;;;;;;;;;5004292;28;20036;-81
2023/01/19 06:40:04;;;;;;;3.20;0.80;;;;;;;;;;5003177;28;20029;-81
2023/01/19 06:42:30;;;;;;;4.22;0.80;;;;;;;;;;5020430;28;20041;-80
2023/01/19 06:44:56;;;;;;;10.57;1.33;;;;;;;;;;5002653;28;20042;-80
2023/01/19 06:47:25;;;;;;;4.57;0.93;;;;;;;;;;5002168;28;20079;-80
2023/01/19 06:50:02;;;;;;;3.90;0.85;;;;;;;;;;5001752;28;20050;-80
2023/01/19 06:52:30;;;;;;;6.78;0.70;;;;;;;;;;5008002;28;20048;-80
2023/01/19 06:54:56;;;;;;;14.57;1.70;;;;;;;;;;5020522;28;20021;-81
2023/01/19 06:57:22;;;;;;;5.93;1.25;;;;;;;;;;5019854;28;20029;-81
2023/01/19 06:59:48;;;;;;;9.52;1.08;;;;;;;;;;5017055;28;21702;-80
2023/01/19 07:02:18;;;;;;;7.25;1.15;;;;;;;;;;5017831;28;20105;-81
2023/01/19 07:07:55;;;;;;;5.20;0.85;;;;;;;;;;5017488;28;20102;-81
2023/01/19 07:10:21;;;;;;;7.18;0.77;;;;;;;;;;5000040;28;20125;-81
2023/01/19 07:12:47;;;;;;;9.43;0.90;;;;;;;;;;4999492;28;20384;-80
2023/01/19 07:15:14;;;;;;;5.28;0.70;;;;;;;;;;4999329;28;20046;-81
2023/01/19 07:17:41;;;;;;;4.25;0.95;;;;;;;;;;4999918;28;20168;-81
2023/01/19 07:20:08;;;;;;;3.95;0.88;;;;;;;;;;4999384;28;20033;-81
2023/01/19 07:22:34;;;;;;;9.32;1.58;;;;;;;;;;5017358;28;20387;-81
2023/01/19 07:25:00;;;;;;;6.70;1.08;;;;;;;;;;4998355;28;20034;-81
2023/01/19 07:27:27;;;;;;;6.72;1.00;;;;;;;;;;5017253;28;20025;-81
2023/01/19 07:29:54;;;;;;;4.38;1.15;;;;;;;;;;5017181;28;20029;-81
2023/01/19 07:32:20;;;;;;;3.97;0.60;;;;;;;;;;4999650;28;20375;-81
2023/01/19 07:34:46;;;;;;;6.72;0.77;;;;;;;;;;4999117;28;20100;-81
2023/01/19 07:37:12;;;;;;;6.18;1.25;;;;;;;;;;4999179;28;20464;-81
2023/01/19 07:39:38;;;;;;;7.80;1.02;;;;;;;;;;5016572;28;20076;-81
2023/01/19 07:42:04;;;;;;;6.75;1.40;;;;;;;;;;4999116;28;20034;-81
2023/01/19 07:44:30;;;;;;;12.75;1.10;;;;;;;;;;4999058;28;20036;-80
2023/01/19 07:46:56;;;;;;;5.57;0.93;;;;;;;;;;4999324;28;20113;-81
2023/01/19 07:49:22;;;;;;;9.63;1.50;;;;;;;;;;5016339;28;20113;-80
2023/01/19 07:51:48;;;;;;;9.77;0.88;;;;;;;;;;4998930;28;20033;-81
2023/01/19 07:54:14;;;;;;;9.82;1.40;;;;;;;;;;5015996;28;20022;-81
2023/01/19 07:56:40;;;;;;;14.07;1.42;;;;;;;;;;4999065;28;20379;-80
2023/01/19 07:59:08;;;;;;;9.02;1.33;;;;;;;;;;4998941;28;20057;-80
2023/01/19 08:01:34;;;;;;;4.70;0.95;;;;;;;;;;5031350;28;20542;-80
2023/01/19 08:04:05;;;;;;;9.07;2.40;;;;;;;;;;4998277;28;20029;-80
2023/01/19 08:06:34;;;;;;;4.18;1.02;;;;;;;;;;5016409;28;20026;-81
2023/01/19 08:09:01;;;;;;;8.85;1.20;;;;;;;;;;4998710;28;20022;-81
2023/01/19 08:11:29;;;;;;;5.00;1.30;;;;;;;;;;4998157;28;20080;-82
2023/01/19 08:14:00;;;;;;;4.18;1.00;;;;;;;;;;4998578;28;20030;-81
2023/01/19 08:16:26;;;;;;;4.60;0.80;;;;;;;;;;4993173;28;20035;-82
2023/01/19 08:18:53;;;;;;;6.07;0.90;;;;;;;;;;4988046;28;20019;-80
2023/01/19 08:21:19;;;;;;;12.27;1.60;;;;;;;;;;5010311;28;20062;-80
2023/01/19 08:23:51;;;;;;;4.57;0.88;;;;;;;;;;4989779;28;20104;-80
2023/01/19 08:26:26;;;;;;;10.13;1.35;;;;;;;;;;4987606;28;20034;-81
2023/01/19 08:28:53;;;;;;;8.93;1.75;;;;;;;;;;4993873;28;20480;-82
2023/01/19 08:31:20;;;;;;;4.95;1.50;;;;;;;;;;4994768;28;20072;-81
2023/01/19 08:33:46;;;;;;;7.95;0.98;;;;;;;;;;4994969;28;20022;-81
2023/01/19 08:36:12;;;;;;;10.05;1.33;;;;;;;;;;4994916;28;20387;-81
2023/01/19 08:38:43;;;;;;;10.02;1.40;;;;;;;;;;4996437;28;20504;-81
2023/01/19 08:41:09;;;;;;;8.13;1.38;;;;;;;;;;4996517;28;20026;-81
2023/01/19 08:43:36;;;;;;;6.78;1.35;;;;;;;;;;4994935;28;20025;-81
2023/01/19 08:46:02;;;;;;;6.65;1.27;;;;;;;;;;4996255;28;20105;-81
2023/01/19 08:48:28;;;;;;;7.40;1.40;;;;;;;;;;4995004;28;20109;-81
2023/01/19 08:50:54;;;;;;;9.80;1.15;;;;;;;;;;4981788;28;20480;-81
2023/01/19 08:53:22;;;;;;;8.32;2.25;;;;;;;;;;4978223;28;20125;-81
2023/01/19 08:56:00;;;;;;;11.45;2.72;;;;;;;;;;4979560;28;20388;-81
2023/01/19 08:58:44;;;;;;;9.20;1.55;;;;;;;;;;4978270;28;20054;-81
2023/01/19 09:01:13;;;;;;;6.45;1.25;;;;;;;;;;4978144;28;20066;-81
2023/01/19 09:03:40;;;;;;;6.38;1.50;;;;;;;;;;4979553;28;20042;-80
2023/01/19 09:06:08;;;;;;;6.97;1.80;;;;;;;;;;4979682;28;20030;-80
2023/01/19 09:08:34;;;;;;;5.93;1.45;;;;;;;;;;4995783;28;20030;-80
2023/01/19 09:11:00;;;;;;;6.72;1.13;;;;;;;;;;4979433;28;20442;-81
2023/01/19 09:13:44;;;;;;;6.45;1.00;;;;;;;;;;4996630;28;20026;-80
2023/01/19 09:16:12;;;;;;;7.13;1.27;;;;;;;;;;4978862;28;20365;-79
2023/01/19 09:18:38;;;;;;;21.88;1.63;;;;;;;;;;4978991;28;20026;-80
2023/01/19 09:21:04;;;;;;;7.70;0.93;;;;;;;;;;4979109;28;20085;-80
2023/01/19 09:23:30;;;;;;;6.50;1.05;;;;;;;;;;4979098;28;20054;-79
2023/01/19 09:26:00;;;;;;;8.07;1.10;;;;;;;;;;4979139;28;20027;-79
2023/01/19 09:28:27;;;;;;;5.22;0.70;;;;;;;;;;4996589;28;20564;-79
2023/01/19 09:30:53;;;;;;;6.47;1.10;;;;;;;;;;4978888;28;20085;-79
2023/01/19 09:33:19;;;;;;;10.13;1.85;;;;;;;;;;4996161;28;20022;-80
2023/01/19 09:35:47;;;;;;;6.60;1.15;;;;;;;;;;4978583;28;20030;-81
2023/01/19 09:38:45;;;;;;;9.57;1.17;;;;;;;;;;4995884;28;20029;-80
2023/01/19 09:41:21;;;;;;;9.05;1.20;;;;;;;;;;4978037;28;20041;-79
2023/01/19 09:44:06;;;;;;;4.18;1.08;;;;;;;;;;4978350;28;20388;-79
2023/01/19 09:46:38;;;;;;;6.72;1.23;;;;;;;;;;4978630;28;20030;-79
2023/01/19 09:49:30;;;;;;;4.78;0.70;;;;;;;;;;4978182;28;20085;-80
2023/01/19 09:51:56;;;;;;;5.07;0.80;;;;;;;;;;4977492;28;20045;-80
2023/01/19 09:54:38;;;;;;;5.15;0.60;;;;;;;;;;4978242;28;20053;-80
2023/01/19 09:57:10;;;;;;;4.80;0.45;;;;;;;;;;4978155;28;20480;-80
2023/01/19 09:59:38;;;;;;;5.60;0.90;;;;;;;;;;4995296;28;20034;-80
2023/01/19 10:02:22;;;;;;;2.33;0.60;;;;;;;;;;4977785;28;20049;-80
2023/01/19 10:05:01;;;;;;;7.22;0.90;;;;;;;;;;4995815;28;20035;-80
2023/01/19 10:07:51;;;;;;;4.85;1.15;;;;;;;;;;4995519;28;20530;-80
2023/01/19 10:10:18;;;;;;;;;;;;;;;;;;4996072;28;20030;-80
2023/01/19 10:12:50;;;;;;;5.70;0.90;;;;;;;;;;4977452;28;19913;-80
2023/01/19 10:15:35;;;;;;;3.47;1.00;;;;;;;;;;4994345;28;20050;-80
2023/01/19 10:18:17;;;;;;;2.33;0.50;;;;;;;;;;4978911;28;20030;-80
2023/01/19 10:20:50;;;;;;;5.00;0.70;;;;;;;;;;5016564;28;20037;-80
2023/01/19 10:26:41;;;;;;;9.40;1.48;;;;;;;;;;5018249;28;20080;-80
2023/01/19 10:29:13;;;;;;;4.57;0.75;;;;;;;;;;5005572;28;20048;-80
2023/01/19 10:31:40;;;;;;;2.65;0.45;;;;;;;;;;4989906;28;20018;-80
2023/01/19 10:34:06;;;;;;;6.45;1.13;;;;;;;;;;4996807;28;20022;-80
2023/01/19 10:36:36;;;;;;;3.80;0.60;;;;;;;;;;4984327;28;20372;-80
2023/01/19 10:39:07;;;;;;;3.95;0.52;;;;;;;;;;5007103;28;20030;-80
2023/01/19 10:41:44;;;;;;;4.93;0.77;;;;;;;;;;5013172;28;20118;-80
2023/01/19 10:44:10;;;;;;;5.95;0.93;;;;;;;;;;5012372;28;20029;-80
2023/01/19 10:46:44;;;;;;;3.33;0.60;;;;;;;;;;4995426;28;20053;-80
2023/01/19 10:49:24;;;;;;;5.22;0.50;;;;;;;;;;4995578;28;20029;-80
2023/01/19 10:51:50;;;;;;;2.05;0.30;;;;;;;;;;5013018;28;20022;-80
2023/01/19 10:54:16;;;;;;;7.88;0.82;;;;;;;;;;5013010;28;20022;-80
2023/01/19 10:56:42;;;;;;;5.30;1.10;;;;;;;;;;5012586;28;20026;-80
2023/01/19 10:59:29;;;;;;;5.15;1.00;;;;;;;;;;5012325;28;20022;-80
2023/01/19 11:02:33;;;;;;;7.93;1.20;;;;;;;;;;5016858;28;20034;-80
2023/01/19 11:08:30;;;;;;;2.13;0.90;;;;;;;;;;4946956;28;20031;-80
2023/01/19 11:11:03;;;;;;;4.32;0.40;;;;;;;;;;5002034;28;20035;-80
2023/01/19 11:13:29;;;;;;;5.63;0.52;;;;;;;;;;5006026;28;20539;-80
2023/01/19 11:15:57;;;;;;;6.47;0.50;;;;;;;;;;5006493;28;20056;-80
2023/01/19 11:18:28;;;;;;;2.50;0.52;;;;;;;;;;4990547;28;20025;-80
2023/01/19 11:20:55;;;;;;;5.00;1.25;;;;;;;;;;5006724;28;20030;-80
2023/01/19 11:23:21;;;;;;;2.00;0.73;;;;;;;;;;5008291;28;20022;-80
2023/01/19 11:25:48;;;;;;;3.45;0.77;;;;;;;;;;5006678;28;20081;-80
2023/01/19 11:28:17;;;;;;;4.93;0.32;;;;;;;;;;5005979;28;20364;-80
2023/01/19 11:30:53;;;;;;;5.85;1.23;;;;;;;;;;5007580;28;20022;-80
2023/01/19 11:33:23;;;;;;;4.57;1.27;;;;;;;;;;5007524;28;20034;-80
2023/01/19 11:35:50;;;;;;;3.00;0.52;;;;;;;;;;5006098;28;20026;-80
2023/01/19 11:38:17;;;;;;;4.90;1.00;;;;;;;;;;5005963;28;20018;-80
2023/01/19 11:40:50;;;;;;;6.68;0.60;;;;;;;;;;5007445;28;20080;-80
2023/01/19 11:43:16;;;;;;;3.85;0.50;;;;;;;;;;5007348;28;20030;-81
2023/01/19 11:45:43;;;;;;;7.05;0.90;;;;;;;;;;4998561;28;20026;-84
2023/01/19 11:48:11;;;;;;;3.85;0.47;;;;;;;;;;5001146;28;20045;-83
2023/01/19 11:51:01;;;;;;;2.40;0.50;;;;;;;;;;5000852;28;20034;-82
2023/01/19 11:53:29;;;;;;;4.50;1.03;;;;;;;;;;4996824;28;20027;-80
2023/01/19 11:56:01;;;;;;;5.60;0.80;;;;;;;;;;4997421;28;20264;-80
2023/01/19 11:58:28;;;;;;;6.03;0.85;;;;;;;;;;4997242;28;20356;-80
2023/01/19 12:00:56;;;;;;;12.25;1.02;;;;;;;;;;4996515;28;20037;-80
2023/01/19 12:03:30;;;;;;;7.75;0.80;;;;;;;;;;5012668;28;20048;-80
2023/01/19 12:05:58;;;;;;;5.95;0.60;;;;;;;;;;5014027;28;20018;-80
2023/01/19 12:08:30;;;;;;;6.60;0.80;;;;;;;;;;5015862;28;20030;-79
2023/01/19 12:10:58;;;;;;;2.35;0.82;;;;;;;;;;5015941;28;20036;-80
2023/01/19 12:13:25;;;;;;;6.65;0.93;;;;;;;;;;5016096;28;20030;-80
2023/01/19 12:16:00;;;;;;;3.42;1.02;;;;;;;;;;5015864;28;20491;-80
2023/01/19 12:18:29;;;;;;;5.22;0.73;;;;;;;;;;5016198;28;20053;-80
2023/01/19 12:20:57;;;;;;;3.70;0.75;;;;;;;;;;5010062;28;20029;-80
2023/01/19 12:23:29;;;;;;;6.22;1.25;;;;;;;;;;4995381;28;20023;-80
2023/01/19 12:26:04;;;;;;;4.40;0.95;;;;;;;;;;4994461;28;20125;-80
2023/01/19 12:28:32;;;;;;;3.28;0.80;;;;;;;;;;4995288;28;20030;-80
2023/01/19 12:30:59;;;;;;;7.13;1.17;;;;;;;;;;4995149;28;20038;-80
2023/01/19 12:33:27;;;;;;;7.75;1.15;;;;;;;;;;4995148;28;20110;-80
2023/01/19 12:35:59;;;;;;;3.75;0.90;;;;;;;;;;4996735;28;20028;-80
2023/01/19 12:38:45;;;;;;;3.13;0.70;;;;;;;;;;4995521;28;20057;-80
2023/01/19 12:41:19;;;;;;;4.63;1.02;;;;;;;;;;4994253;28;20109;-80
2023/01/19 12:43:46;;;;;;;7.05;1.08;;;;;;;;;;4995243;28;20026;-80
2023/01/19 12:46:38;;;;;;;4.05;0.80;;;;;;;;;;4994702;28;20388;-80
2023/01/19 12:49:15;;;;;;;2.88;0.75;;;;;;;;;;4972382;28;20510;-80
2023/01/19 12:51:41;;;;;;;4.28;0.80;;;;;;;;;;4995979;28;20034;-81
2023/01/19 12:54:08;;;;;;;4.68;1.10;;;;;;;;;;4995193;28;20026;-80
2023/01/19 12:56:36;;;;;;;6.20;0.95;;;;;;;;;;4997300;28;20031;-80
2023/01/19 12:59:03;;;;;;;4.05;0.55;;;;;;;;;;4996917;28;20049;-80
2023/01/19 13:01:29;;;;;;;4.78;1.33;;;;;;;;;;4997312;28;20080;-80
2023/01/19 13:04:02;;;;;;;4.10;0.60;;;;;;;;;;4997068;28;20494;-80
2023/01/19 13:06:47;;;;;;;5.15;0.73;;;;;;;;;;4995849;28;20468;-81
2023/01/19 13:09:29;;;;;;;4.18;0.60;;;;;;;;;;4995941;28;20026;-80
2023/01/19 13:12:18;;;;;;;7.78;0.55;;;;;;;;;;4995760;28;20064;-80
2023/01/19 13:14:45;;;;;;;2.40;0.52;;;;;;;;;;4978731;28;20117;-80
2023/01/19 13:17:21;;;;;;;1.58;0.50;;;;;;;;;;4994053;28;20102;-80
2023/01/19 13:19:50;;;;;;;5.00;0.60;;;;;;;;;;4994303;28;20113;-82
2023/01/19 13:22:35;;;;;;;1.90;0.40;;;;;;;;;;4993677;28;20034;-80
2023/01/19 13:25:06;;;;;;;2.25;0.30;;;;;;;;;;4994254;28;20434;-80
2023/01/19 13:27:34;;;;;;;4.15;0.57;;;;;;;;;;4993831;28;20035;-80
2023/01/19 13:30:00;;;;;;;3.45;0.88;;;;;;;;;;4994290;28;20065;-80
2023/01/19 13:32:26;;;;;;;1.55;0.38;;;;;;;;;;4994013;28;20041;-80
2023/01/19 13:35:02;;;;;;;5.63;1.10;;;;;;;;;;4994003;28;20027;-80
2023/01/19 13:37:40;;;;;;;6.00;0.75;;;;;;;;;;4993735;28;20041;-80
2023/01/19 13:40:06;;;;;;;3.75;0.50;;;;;;;;;;4995433;28;20026;-80
2023/01/19 13:42:35;;;;;;;4.13;0.55;;;;;;;;;;4994163;28;20037;-80
2023/01/19 13:45:36;;;;;;;5.80;0.63;;;;;;;;;;4977812;28;20066;-80
2023/01/19 13:48:04;;;;;;;3.33;1.05;;;;;;;;;;4991126;28;20035;-80
2023/01/19 13:50:32;;;;;;;3.88;0.57;;;;;;;;;;4993682;28;20027;-80
2023/01/19 13:52:59;;;;;;;4.53;0.55;;;;;;;;;;4993464;28;20030;-79
2023/01/19 13:55:29;;;;;;;6.80;0.82;;;;;;;;;;4993790;28;20030;-80
2023/01/19 14:04:01;;;;;;;3.05;0.60;;;;;;;;;;4994275;28;20109;-79
2023/01/19 14:06:32;;;;;;;7.30;0.95;;;;;;;;;;4993532;28;20026;-79
2023/01/19 14:09:05;;;;;;;5.72;0.90;;;;;;;;;;4997599;28;20419;-80
2023/01/19 14:11:31;;;;;;;4.15;0.95;;;;;;;;;;5033134;28;20021;-80
2023/01/19 14:13:57;;;;;;;5.05;0.90;;;;;;;;;;5023927;28;20032;-80
2023/01/19 14:16:23;;;;;;;10.60;1.98;;;;;;;;;;5002744;28;20392;-80
2023/01/19 14:18:58;;;;;;;7.00;1.40;;;;;;;;;;5005294;28;20495;-80
2023/01/19 14:21:24;;;;;;;5.53;0.80;;;;;;;;;;5009981;28;20037;-80
2023/01/19 14:23:51;;;;;;;5.97;1.73;;;;;;;;;;5012988;28;20030;-80
2023/01/19 14:26:36;;;;;;;4.93;0.75;;;;;;;;;;5007228;28;20022;-80
2023/01/19 14:29:22;;;;;;;10.25;0.90;;;;;;;;;;5002371;28;20048;-80
2023/01/19 14:32:12;;;;;;;5.10;0.85;;;;;;;;;;4994765;28;20093;-80
2023/01/19 14:34:43;;;;;;;3.53;0.70;;;;;;;;;;4992340;28;20053;-80
2023/01/19 14:37:22;;;;;;;12.38;1.23;;;;;;;;;;4997110;28;20054;-80
2023/01/19 14:39:50;;;;;;;5.75;1.23;;;;;;;;;;4999714;28;20052;-80
2023/01/19 14:42:18;;;;;;;3.28;0.73;;;;;;;;;;5002515;28;20080;-80
2023/01/19 14:44:46;;;;;;;6.80;0.80;;;;;;;;;;4981737;28;20089;-80
2023/01/19 14:47:25;;;;;;;6.30;1.38;;;;;;;;;;4996591;28;20026;-80
2023/01/19 14:49:52;;;;;;;7.63;0.95;;;;;;;;;;4997354;28;20077;-80
2023/01/19 14:52:45;;;;;;;5.93;0.90;;;;;;;;;;4996602;28;20492;-80
2023/01/19 14:55:21;;;;;;;2.40;0.60;;;;;;;;;;4995680;28;20035;-80
2023/01/19 14:57:47;;;;;;;4.97;0.75;;;;;;;;;;4995925;28;20134;-80
2023/01/19 15:00:16;;;;;;;6.30;0.70;;;;;;;;;;4977720;28;20472;-80
2023/01/19 15:02:42;;;;;;;4.95;0.65;;;;;;;;;;4995042;28;20035;-80
2023/01/19 15:05:08;;;;;;;5.00;1.17;;;;;;;;;;4995249;28;20101;-80
2023/01/19 15:07:36;;;;;;;7.07;0.88;;;;;;;;;;5003498;28;20299;-80
2023/01/19 15:10:02;;;;;;;5.20;0.90;;;;;;;;;;5014951;28;20084;-80
2023/01/19 15:12:28;;;;;;;3.25;0.70;;;;;;;;;;5015147;28;20033;-80
2023/01/19 15:14:54;;;;;;;3.55;0.90;;;;;;;;;;5015943;28;20057;-80
2023/01/19 15:17:24;;;;;;;10.07;2.10;;;;;;;;;;5015999;28;20022;-80
2023/01/19 15:19:54;;;;;;;16.98;9.10;;;;;;;;;;5016802;28;20022;-80
2023/01/19 15:22:23;;;;;;;8.82;4.95;;;;;;;;;;5015928;28;20034;-80
2023/01/19 15:24:50;;;;;;;12.20;4.63;;;;;;;;;;5016777;28;20018;-79
2023/01/19 15:27:16;;;;;;;17.00;9.10;;;;;;;;;;5016516;28;20022;-80
2023/01/19 15:29:42;;;;;;;33.30;13.73;;;;;;;;;;5016735;28;20061;-79